createdAt,value
2019-03-20T08:22:42.299Z,3.17
2019-03-20T08:25:14.071Z,3.07
2019-03-20T08:27:45.765Z,3.03
2019-03-20T08:30:18.094Z,3.20
2019-03-20T08:32:49.829Z,3.17
2019-03-20T08:35:21.526Z,3.37
2019-03-20T08:37:53.286Z,2.40
2019-03-20T08:40:25.008Z,2.70
2019-03-20T08:42:56.724Z,3.10
2019-03-20T08:45:28.661Z,3.07
2019-03-20T08:48:00.384Z,2.87
2019-03-20T08:50:32.220Z,2.87
2019-03-20T08:53:04.132Z,2.23
2019-03-20T08:55:35.887Z,2.23
2019-03-20T08:58:07.695Z,2.70
2019-03-20T09:00:39.524Z,2.85
2019-03-20T09:03:11.325Z,2.40
2019-03-20T09:05:43.041Z,2.27
2019-03-20T09:08:14.774Z,2.00
2019-03-20T09:10:46.524Z,2.90
2019-03-20T09:13:18.241Z,2.60
2019-03-20T09:15:49.972Z,2.87
2019-03-20T09:18:21.691Z,2.30
2019-03-20T09:20:53.416Z,2.37
2019-03-20T09:23:25.217Z,2.00
2019-03-20T09:25:56.929Z,3.20
2019-03-20T09:28:28.774Z,2.30
2019-03-20T09:31:00.492Z,2.27
2019-03-20T09:33:32.220Z,2.70
2019-03-20T09:36:04.152Z,2.67
2019-03-20T09:38:43.299Z,3.10
2019-03-20T09:41:09.489Z,2.98
2019-03-20T09:43:41.201Z,2.33
2019-03-20T09:46:13.015Z,2.58
2019-03-20T09:48:44.833Z,2.85
2019-03-20T09:51:16.539Z,3.12
2019-03-20T09:53:48.280Z,3.95
2019-03-20T09:56:20.131Z,3.60
2019-03-20T09:58:51.919Z,3.53
2019-03-20T10:01:23.636Z,3.87
2019-03-20T10:03:55.349Z,3.85
2019-03-20T10:06:27.067Z,5.25
2019-03-20T10:08:58.796Z,5.30
2019-03-20T10:11:30.558Z,4.05
2019-03-20T10:14:02.488Z,4.50
2019-03-20T10:16:34.212Z,4.65
2019-03-20T10:19:05.933Z,4.75
2019-03-20T10:21:37.769Z,4.20
2019-03-20T10:24:09.492Z,5.35
2019-03-20T10:26:41.321Z,5.08
2019-03-20T10:29:13.043Z,5.10
2019-03-20T10:31:44.793Z,5.08
2019-03-20T10:34:16.607Z,4.53
2019-03-20T10:36:48.336Z,4.40
2019-03-20T10:39:20.060Z,4.40
2019-03-20T10:41:51.790Z,4.72
2019-03-20T10:44:23.615Z,5.25
2019-03-20T10:46:55.360Z,5.50
2019-03-20T10:49:27.088Z,5.35
2019-03-20T10:51:58.947Z,6.90
2019-03-20T10:54:30.824Z,6.78
2019-03-20T10:57:02.673Z,6.65
2019-03-20T10:59:34.408Z,7.20
2019-03-20T11:02:06.429Z,7.12
2019-03-20T11:04:38.144Z,7.65
2019-03-20T11:07:09.880Z,7.17
2019-03-20T11:09:41.604Z,5.28
2019-03-20T11:12:13.433Z,6.75
2019-03-20T11:14:45.279Z,7.65
2019-03-20T11:17:17.080Z,7.70
2019-03-20T11:19:48.812Z,8.55
2019-03-20T11:22:20.666Z,6.90
2019-03-20T11:24:52.383Z,7.65
2019-03-20T11:27:27.577Z,7.58
2019-03-20T11:29:57.745Z,9.15
2019-03-20T11:32:29.580Z,8.53
2019-03-20T11:35:01.288Z,8.33
2019-03-20T11:37:33.019Z,8.23
2019-03-20T11:40:07.876Z,9.33
2019-03-20T11:42:40.845Z,7.90
2019-03-20T11:45:13.244Z,9.93
2019-03-20T11:47:45.071Z,8.97
2019-03-20T11:50:19.831Z,8.47
2019-03-20T11:52:51.532Z,9.60
2019-03-20T11:55:23.363Z,9.37
2019-03-20T11:57:55.067Z,8.20
2019-03-20T12:00:27.009Z,9.53
2019-03-20T12:02:58.825Z,9.20
2019-03-20T12:05:30.789Z,11.33
2019-03-20T12:08:03.123Z,10.65
2019-03-20T12:10:34.957Z,9.87
2019-03-20T12:13:06.752Z,11.03
2019-03-20T12:15:38.488Z,11.07
2019-03-20T12:18:10.215Z,10.33
2019-03-20T12:20:41.920Z,11.50
2019-03-20T12:23:13.678Z,12.17
2019-03-20T12:25:45.388Z,12.83
2019-03-20T12:28:17.122Z,11.23
2019-03-20T12:30:48.923Z,12.90
2019-03-20T12:33:20.652Z,12.20
2019-03-20T12:35:52.490Z,11.17
2019-03-20T12:38:24.305Z,11.23
2019-03-20T12:40:56.219Z,11.33
2019-03-20T12:43:27.941Z,12.23
2019-03-20T12:45:59.703Z,11.80
2019-03-20T12:48:31.548Z,12.00
2019-03-20T12:51:03.444Z,11.57
2019-03-20T12:53:35.466Z,11.33
2019-03-20T12:56:07.216Z,12.10
2019-03-20T12:58:38.936Z,11.07
2019-03-20T13:01:10.657Z,12.13
2019-03-20T13:03:42.407Z,12.30
2019-03-20T13:06:14.201Z,12.10
2019-03-20T13:08:45.921Z,11.70
2019-03-20T13:11:17.627Z,13.63
2019-03-20T13:13:49.458Z,12.33
2019-03-20T13:16:21.195Z,11.93
2019-03-20T13:18:53.039Z,11.40
2019-03-20T13:21:24.886Z,13.13
2019-03-20T13:23:56.726Z,12.67
2019-03-20T13:26:28.454Z,12.43
2019-03-20T13:29:00.276Z,11.83
2019-03-20T13:31:32.004Z,11.50
2019-03-20T13:34:03.882Z,12.07
2019-03-20T13:36:35.624Z,10.93
2019-03-20T13:39:07.355Z,11.47
2019-03-20T13:41:39.192Z,12.93
2019-03-20T13:44:10.905Z,12.77
2019-03-20T13:46:42.632Z,13.03
2019-03-20T13:49:14.369Z,10.93
2019-03-20T13:51:46.186Z,10.50
2019-03-20T13:54:17.999Z,12.30
2019-03-20T13:56:49.756Z,11.43
2019-03-20T13:59:21.576Z,10.87
2019-03-20T14:01:53.281Z,10.53
2019-03-20T14:04:25.025Z,10.90
2019-03-20T14:06:56.733Z,10.73
2019-03-20T14:09:28.469Z,11.90
2019-03-20T14:12:00.296Z,12.17
2019-03-20T14:14:32.144Z,11.00
2019-03-20T14:17:03.989Z,13.63
2019-03-20T14:19:35.798Z,10.63
2019-03-20T14:22:07.524Z,10.87
2019-03-20T14:24:39.227Z,11.30
2019-03-20T14:27:10.959Z,10.27
2019-03-20T14:29:42.763Z,10.13
2019-03-20T14:32:14.544Z,10.83
2019-03-20T14:34:46.319Z,11.10
2019-03-20T14:37:18.128Z,9.10
2019-03-20T14:39:50.053Z,11.90
2019-03-20T14:42:21.788Z,10.10
2019-03-20T14:44:53.545Z,9.17
2019-03-20T14:47:25.268Z,9.53
2019-03-20T14:49:57.120Z,11.03
2019-03-20T14:52:28.839Z,12.27
2019-03-20T15:10:46.259Z,7.03
2019-03-20T15:13:16.466Z,8.13
2019-03-20T15:15:52.240Z,9.63
2019-03-20T15:18:23.960Z,8.00
2019-03-20T15:20:55.704Z,6.77
2019-03-20T15:23:27.417Z,6.93
2019-03-20T15:25:59.132Z,6.17
2019-03-20T15:28:30.858Z,7.47
2019-03-20T15:31:02.787Z,6.07
2019-03-20T15:33:34.528Z,5.93
2019-03-20T15:36:06.295Z,5.63
2019-03-20T15:38:38.061Z,6.97
2019-03-20T15:41:09.875Z,6.30
2019-03-20T15:43:41.696Z,6.40
2019-03-20T15:46:13.393Z,6.53
2019-03-20T15:48:45.933Z,6.57
2019-03-20T15:51:17.655Z,7.00
2019-03-20T15:53:49.408Z,6.17
2019-03-20T15:56:21.223Z,6.37
2019-03-20T15:58:52.960Z,6.67
2019-03-20T16:01:24.701Z,6.77
2019-03-20T16:03:56.445Z,6.60
2019-03-20T16:09:17.913Z,6.80
2019-03-20T16:11:57.192Z,7.57
2019-03-20T16:15:52.239Z,6.73
2019-03-20T16:18:42.165Z,6.63
2019-03-20T16:21:25.581Z,6.53
2019-03-20T16:24:09.188Z,6.87
2019-03-20T16:27:17.318Z,5.93
2019-03-20T16:29:59.118Z,6.03
2019-03-20T16:32:56.397Z,6.30
2019-03-20T16:35:45.767Z,5.33
2019-03-20T16:38:17.491Z,6.23
2019-03-20T16:40:49.235Z,6.73
2019-03-20T16:43:21.151Z,5.73
2019-03-20T16:45:52.872Z,5.90
2019-03-20T16:48:24.607Z,6.83
2019-03-20T16:50:56.530Z,5.63
2019-03-20T16:53:28.236Z,6.30
2019-03-20T16:55:59.968Z,6.73
2019-03-20T16:58:31.880Z,7.10
2019-03-20T17:01:03.895Z,6.00
2019-03-20T17:03:35.645Z,6.27
2019-03-20T17:06:07.493Z,6.80
2019-03-20T17:08:39.268Z,6.10
2019-03-20T17:11:11.107Z,6.27
2019-03-20T17:13:42.974Z,6.43
2019-03-20T17:16:14.784Z,6.87
2019-03-20T17:18:46.736Z,7.10
2019-03-20T17:21:18.561Z,6.73
2019-03-20T17:23:50.516Z,6.93
2019-03-20T17:26:22.275Z,6.73
2019-03-20T17:28:54.055Z,6.53
2019-03-20T17:31:25.806Z,6.33
2019-03-20T17:33:57.554Z,6.83
2019-03-20T17:36:29.337Z,7.47
2019-03-20T17:39:01.060Z,6.97
2019-03-20T17:41:36.580Z,6.77
2019-03-20T17:44:06.703Z,8.27
2019-03-20T17:46:39.004Z,6.27
2019-03-20T17:49:11.414Z,7.00
2019-03-20T17:51:43.797Z,6.30
2019-03-20T17:54:16.208Z,5.53
2019-03-20T17:56:48.590Z,5.10
2019-03-20T17:59:20.761Z,5.10
2019-03-20T18:01:53.388Z,5.00
2019-03-20T18:04:25.632Z,5.20
2019-03-20T18:06:57.988Z,5.13
2019-03-20T18:09:30.424Z,5.77
2019-03-20T18:12:02.208Z,5.13
2019-03-20T18:14:33.944Z,4.50
2019-03-20T18:17:05.737Z,5.27
2019-03-20T18:19:37.468Z,5.60
2019-03-20T18:22:09.196Z,4.77
2019-03-20T18:24:40.921Z,6.10
2019-03-20T18:27:12.649Z,5.83
2019-03-20T18:29:44.464Z,4.73
2019-03-20T18:32:16.196Z,5.33
2019-03-20T18:34:48.053Z,5.67
2019-03-20T18:37:19.760Z,5.33
2019-03-20T18:39:51.497Z,5.10
2019-03-20T18:42:23.434Z,5.37
2019-03-20T18:44:55.267Z,4.57
2019-03-20T18:47:27.078Z,5.17
2019-03-20T18:49:58.793Z,5.97
2019-03-20T18:52:30.504Z,5.40
2019-03-20T18:55:02.529Z,5.37
2019-03-20T18:57:35.037Z,4.83
2019-03-20T19:00:11.128Z,4.27
2019-03-20T19:02:43.593Z,4.73
2019-03-20T19:05:18.968Z,4.60
2019-03-20T19:07:51.236Z,5.33
2019-03-20T19:10:23.853Z,5.37
2019-03-20T19:12:55.859Z,5.83
2019-03-20T19:15:27.775Z,7.20
2019-03-20T19:17:59.508Z,6.53
2019-03-20T19:20:31.340Z,7.00
2019-03-20T19:23:03.688Z,6.00
2019-03-20T19:25:35.621Z,6.97
2019-03-20T19:28:07.343Z,7.20
2019-03-20T19:30:39.193Z,7.20
2019-03-20T19:33:11.032Z,6.17
2019-03-20T19:35:42.771Z,6.00
2019-03-20T19:38:17.353Z,5.77
2019-03-20T19:40:49.294Z,5.47
2019-03-20T19:43:22.816Z,5.93
2019-03-20T19:45:54.758Z,5.20
2019-03-20T19:48:26.486Z,6.63
2019-03-20T19:50:58.390Z,7.23
2019-03-20T19:53:31.543Z,5.80
2019-03-20T19:56:03.486Z,6.17
2019-03-20T19:58:35.311Z,6.70
2019-03-20T20:01:07.072Z,6.53
2019-03-20T20:03:38.789Z,4.60
2019-03-20T20:06:11.446Z,5.27
2019-03-20T20:08:43.425Z,5.63
2019-03-20T20:11:15.372Z,5.40
2019-03-20T20:13:50.329Z,5.23
2019-03-20T20:16:22.076Z,5.27
2019-03-20T20:18:53.806Z,4.23
2019-03-20T20:21:25.645Z,4.70
2019-03-20T20:23:57.582Z,4.93
2019-03-20T20:26:29.420Z,4.97
2019-03-20T20:29:01.148Z,4.77
2019-03-20T20:31:33.017Z,4.57
2019-03-20T20:34:04.830Z,5.17
2019-03-20T20:36:36.677Z,4.87
2019-03-20T20:39:08.593Z,5.17
2019-03-20T20:41:40.446Z,4.97
2019-03-20T20:44:12.370Z,4.53
2019-03-20T20:46:44.199Z,4.80
2019-03-20T20:49:16.034Z,5.00
2019-03-20T20:51:47.881Z,6.63
2019-03-20T20:54:19.607Z,5.93
2019-03-20T20:56:51.365Z,6.63
2019-03-20T20:59:23.085Z,4.70
2019-03-20T21:01:54.955Z,5.67
2019-03-20T21:04:26.760Z,5.47
2019-03-20T21:06:58.525Z,5.43
2019-03-20T21:09:30.253Z,5.67
2019-03-20T21:12:02.093Z,6.10
2019-03-20T21:14:33.817Z,5.50
2019-03-20T21:17:09.803Z,5.87
2019-03-20T21:19:42.060Z,5.67
2019-03-20T21:22:52.200Z,6.90
2019-03-20T21:25:24.545Z,6.97
2019-03-20T21:28:39.359Z,6.07
2019-03-20T21:31:20.942Z,6.77
2019-03-20T21:34:40.729Z,7.00
2019-03-20T21:37:59.852Z,7.17
2019-03-20T21:40:56.230Z,7.03
2019-03-20T21:44:27.995Z,6.83
2019-03-20T21:47:30.761Z,7.33
2019-03-20T21:50:56.926Z,8.70
2019-03-20T21:53:57.518Z,8.33
2019-03-20T21:56:35.052Z,8.20
2019-03-20T21:59:33.278Z,8.13
2019-03-20T22:02:40.919Z,8.10
2019-03-20T22:05:23.066Z,8.10
2019-03-20T22:07:52.474Z,9.03
2019-03-20T22:11:17.388Z,8.80
2019-03-20T22:13:54.660Z,9.53
2019-03-20T22:17:03.251Z,11.30
2019-03-20T22:20:16.048Z,10.43
2019-03-20T22:23:14.932Z,10.53
2019-03-20T22:26:29.825Z,11.23
2019-03-20T22:29:26.727Z,10.60
2019-03-20T22:32:50.279Z,11.07
2019-03-20T22:35:36.838Z,11.53
2019-03-20T22:38:46.484Z,12.53
2019-03-20T22:41:53.745Z,11.87
2019-03-20T22:44:26.398Z,12.17
2019-03-20T22:47:39.247Z,14.07
2019-03-20T22:50:22.196Z,13.83
2019-03-20T22:53:33.731Z,15.23
2019-03-20T22:56:58.800Z,13.97
2019-03-20T22:59:31.044Z,14.63
2019-03-20T23:02:31.094Z,14.93
2019-03-20T23:05:04.268Z,16.27
2019-03-20T23:07:36.563Z,15.43
2019-03-20T23:10:10.971Z,15.77
2019-03-20T23:12:43.333Z,15.03
2019-03-20T23:15:16.015Z,15.17
2019-03-20T23:17:48.272Z,16.27
2019-03-20T23:20:21.976Z,15.63
2019-03-20T23:22:54.260Z,16.07
2019-03-20T23:25:26.600Z,16.63
2019-03-20T23:27:58.847Z,14.73
2019-03-20T23:30:31.157Z,15.97
2019-03-20T23:33:03.761Z,15.30
2019-03-20T23:35:36.116Z,17.33
2019-03-20T23:38:08.485Z,16.07
2019-03-20T23:40:40.711Z,16.87
2019-03-20T23:43:13.003Z,18.03
2019-03-20T23:45:45.335Z,17.77
2019-03-20T23:48:28.128Z,18.73
2019-03-20T23:51:04.568Z,20.10
2019-03-20T23:53:38.844Z,17.73
2019-03-20T23:56:11.092Z,19.33
2019-03-20T23:58:43.360Z,18.70
